sensor_id;sensor_type;location;lat;lon;timestamp;temperature;humidity
10662;DHT22;5379;51.034;7.006;2023-05-19T00:00:06;15.00;97.20
10662;DHT22;5379;51.034;7.006;2023-05-19T04:32:39;12.20;99.90
10662;DHT22;5379;51.034;7.006;2023-05-19T04:35:06;12.10;99.90
10662;DHT22;5379;51.034;7.006;2023-05-19T04:37:33;12.00;99.90
10662;DHT22;5379;51.034;7.006;2023-05-19T04:40:02;12.00;99.90
10662;DHT22;5379;51.034;7.006;2023-05-19T04:42:30;12.10;99.90
10662;DHT22;5379;51.034;7.006;2023-05-19T04:44:57;12.10;99.90
10662;DHT22;5379;51.034;7.006;2023-05-19T04:47:24;12.10;99.90
10662;DHT22;5379;51.034;7.006;2023-05-19T04:49:54;12.20;99.90
10662;DHT22;5379;51.034;7.006;2023-05-19T04:52:21;12.20;99.90
10662;DHT22;5379;51.034;7.006;2023-05-19T04:54:48;12.20;99.90
10662;DHT22;5379;51.034;7.006;2023-05-19T04:57:15;12.30;99.90
10662;DHT22;5379;51.034;7.006;2023-05-19T04:59:42;12.40;99.90
10662;DHT22;5379;51.034;7.006;2023-05-19T05:02:09;12.60;99.90
10662;DHT22;5379;51.034;7.006;2023-05-19T05:04:36;12.70;99.90
10662;DHT22;5379;51.034;7.006;2023-05-19T05:07:08;12.80;99.90
10662;DHT22;5379;51.034;7.006;2023-05-19T05:09:35;12.90;99.90
10662;DHT22;5379;51.034;7.006;2023-05-19T05:12:02;13.00;99.90
10662;DHT22;5379;51.034;7.006;2023-05-19T05:14:32;13.10;99.90
10662;DHT22;5379;51.034;7.006;2023-05-19T05:17:00;13.20;99.90
10662;DHT22;5379;51.034;7.006;2023-05-19T05:19:28;13.30;99.90
10662;DHT22;5379;51.034;7.006;2023-05-19T05:21:55;13.40;99.90
10662;DHT22;5379;51.034;7.006;2023-05-19T05:24:25;13.50;99.90
10662;DHT22;5379;51.034;7.006;2023-05-19T05:26:52;13.50;99.90
10662;DHT22;5379;51.034;7.006;2023-05-19T05:29:19;13.60;99.90
10662;DHT22;5379;51.034;7.006;2023-05-19T05:31:46;13.70;99.90
10662;DHT22;5379;51.034;7.006;2023-05-19T05:34:13;13.80;99.90
10662;DHT22;5379;51.034;7.006;2023-05-19T05:36:40;13.80;99.90
10662;DHT22;5379;51.034;7.006;2023-05-19T05:39:07;14.00;99.90
10662;DHT22;5379;51.034;7.006;2023-05-19T05:41:35;14.10;99.90
10662;DHT22;5379;51.034;7.006;2023-05-19T05:44:03;14.10;99.90
10662;DHT22;5379;51.034;7.006;2023-05-19T05:46:30;14.20;99.90
10662;DHT22;5379;51.034;7.006;2023-05-19T05:48:58;14.30;99.90
10662;DHT22;5379;51.034;7.006;2023-05-19T05:51:25;14.30;99.60
10662;DHT22;5379;51.034;7.006;2023-05-19T05:53:53;14.40;99.60
10662;DHT22;5379;51.034;7.006;2023-05-19T05:56:21;14.40;99.70
10662;DHT22;5379;51.034;7.006;2023-05-19T05:58:49;14.50;99.60
10662;DHT22;5379;51.034;7.006;2023-05-19T06:01:16;14.60;99.60
10662;DHT22;5379;51.034;7.006;2023-05-19T06:03:43;14.70;99.50
10662;DHT22;5379;51.034;7.006;2023-05-19T06:06:11;14.80;99.00
10662;DHT22;5379;51.034;7.006;2023-05-19T06:08:38;14.90;98.90
10662;DHT22;5379;51.034;7.006;2023-05-19T06:11:05;14.90;98.80
10662;DHT22;5379;51.034;7.006;2023-05-19T06:13:34;15.00;98.80
10662;DHT22;5379;51.034;7.006;2023-05-19T06:16:02;15.00;98.30
10662;DHT22;5379;51.034;7.006;2023-05-19T06:18:29;15.10;98.40
10662;DHT22;5379;51.034;7.006;2023-05-19T06:20:56;15.30;98.70
10662;DHT22;5379;51.034;7.006;2023-05-19T06:23:23;15.50;98.40
10662;DHT22;5379;51.034;7.006;2023-05-19T06:25:51;15.70;98.50
10662;DHT22;5379;51.034;7.006;2023-05-19T06:28:18;15.60;97.40
10662;DHT22;5379;51.034;7.006;2023-05-19T06:30:45;15.60;97.30
10662;DHT22;5379;51.034;7.006;2023-05-19T06:33:13;15.60;97.20
10662;DHT22;5379;51.034;7.006;2023-05-19T06:35:41;15.70;97.50
10662;DHT22;5379;51.034;7.006;2023-05-19T06:38:08;16.00;97.40
10662;DHT22;5379;51.034;7.006;2023-05-19T06:40:35;16.10;97.00
10662;DHT22;5379;51.034;7.006;2023-05-19T06:43:02;16.40;97.50
10662;DHT22;5379;51.034;7.006;2023-05-19T06:45:29;16.10;96.20
10662;DHT22;5379;51.034;7.006;2023-05-19T06:47:56;16.30;96.20
10662;DHT22;5379;51.034;7.006;2023-05-19T06:50:25;16.60;96.70
10662;DHT22;5379;51.034;7.006;2023-05-19T06:52:52;16.90;96.80
10662;DHT22;5379;51.034;7.006;2023-05-19T06:55:19;17.20;97.50
10662;DHT22;5379;51.034;7.006;2023-05-19T06:57:46;17.10;95.10
10662;DHT22;5379;51.034;7.006;2023-05-19T07:00:13;17.60;96.00
10662;DHT22;5379;51.034;7.006;2023-05-19T07:02:41;17.10;94.90
10662;DHT22;5379;51.034;7.006;2023-05-19T07:05:08;17.00;95.20
10662;DHT22;5379;51.034;7.006;2023-05-19T07:07:37;17.20;95.30
10662;DHT22;5379;51.034;7.006;2023-05-19T07:10:04;17.50;95.70
10662;DHT22;5379;51.034;7.006;2023-05-19T07:12:31;18.10;96.60
10662;DHT22;5379;51.034;7.006;2023-05-19T07:14:58;18.50;94.70
10662;DHT22;5379;51.034;7.006;2023-05-19T07:17:25;18.10;94.40
10662;DHT22;5379;51.034;7.006;2023-05-19T07:19:52;18.00;94.50
10662;DHT22;5379;51.034;7.006;2023-05-19T07:22:19;18.10;94.60
10662;DHT22;5379;51.034;7.006;2023-05-19T07:24:48;18.50;95.90
10662;DHT22;5379;51.034;7.006;2023-05-19T07:27:15;18.80;93.70
10662;DHT22;5379;51.034;7.006;2023-05-19T07:29:42;18.80;93.60
10662;DHT22;5379;51.034;7.006;2023-05-19T07:32:09;19.30;95.80
10662;DHT22;5379;51.034;7.006;2023-05-19T07:34:36;19.40;93.60
10662;DHT22;5379;51.034;7.006;2023-05-19T07:37:04;19.80;94.60
10662;DHT22;5379;51.034;7.006;2023-05-19T07:39:32;19.60;92.60
10662;DHT22;5379;51.034;7.006;2023-05-19T07:42:01;19.20;93.00
10662;DHT22;5379;51.034;7.006;2023-05-19T07:47:31;19.00;94.40
10662;DHT22;5379;51.034;7.006;2023-05-19T07:49:58;19.70;95.10
10662;DHT22;5379;51.034;7.006;2023-05-19T07:52:25;20.00;94.30
10662;DHT22;5379;51.034;7.006;2023-05-19T07:54:52;20.10;92.20
10662;DHT22;5379;51.034;7.006;2023-05-19T07:57:22;19.50;92.20
10662;DHT22;5379;51.034;7.006;2023-05-19T07:59:49;19.30;92.60
10662;DHT22;5379;51.034;7.006;2023-05-19T08:02:16;19.30;92.60
10662;DHT22;5379;51.034;7.006;2023-05-19T08:04:43;19.20;93.20
10662;DHT22;5379;51.034;7.006;2023-05-19T08:07:10;20.10;95.80
10662;DHT22;5379;51.034;7.006;2023-05-19T08:09:37;19.90;92.70
10662;DHT22;5379;51.034;7.006;2023-05-19T08:12:04;20.10;93.00
10662;DHT22;5379;51.034;7.006;2023-05-19T08:14:33;20.10;92.80
10662;DHT22;5379;51.034;7.006;2023-05-19T08:17:00;20.20;91.80
10662;DHT22;5379;51.034;7.006;2023-05-19T08:19:27;20.30;91.60
10662;DHT22;5379;51.034;7.006;2023-05-19T08:21:54;19.60;92.10
10662;DHT22;5379;51.034;7.006;2023-05-19T08:24:22;19.50;93.70
10662;DHT22;5379;51.034;7.006;2023-05-19T08:26:48;19.10;92.00
10662;DHT22;5379;51.034;7.006;2023-05-19T08:29:15;18.50;92.60
10662;DHT22;5379;51.034;7.006;2023-05-19T08:31:44;19.20;93.30
10662;DHT22;5379;51.034;7.006;2023-05-19T08:34:11;19.70;92.20
10662;DHT22;5379;51.034;7.006;2023-05-19T08:36:38;20.00;91.90
10662;DHT22;5379;51.034;7.006;2023-05-19T08:39:05;20.20;91.70
10662;DHT22;5379;51.034;7.006;2023-05-19T08:41:32;19.70;91.80
10662;DHT22;5379;51.034;7.006;2023-05-19T08:43:59;19.80;94.20
10662;DHT22;5379;51.034;7.006;2023-05-19T08:46:27;20.20;93.20
10662;DHT22;5379;51.034;7.006;2023-05-19T08:49:00;20.30;91.40
10662;DHT22;5379;51.034;7.006;2023-05-19T08:51:34;20.30;92.70
10662;DHT22;5379;51.034;7.006;2023-05-19T08:54:11;20.30;94.50
10662;DHT22;5379;51.034;7.006;2023-05-19T08:56:41;20.70;93.10
10662;DHT22;5379;51.034;7.006;2023-05-19T08:59:09;21.40;94.60
10662;DHT22;5379;51.034;7.006;2023-05-19T09:01:37;21.70;94.40
10662;DHT22;5379;51.034;7.006;2023-05-19T09:04:06;21.60;94.80
10662;DHT22;5379;51.034;7.006;2023-05-19T09:06:33;21.60;94.10
10662;DHT22;5379;51.034;7.006;2023-05-19T09:09:00;21.70;94.50
10662;DHT22;5379;51.034;7.006;2023-05-19T09:11:28;20.40;90.60
10662;DHT22;5379;51.034;7.006;2023-05-19T09:13:55;19.50;91.70
10662;DHT22;5379;51.034;7.006;2023-05-19T09:16:22;19.40;91.70
10662;DHT22;5379;51.034;7.006;2023-05-19T09:18:56;19.30;92.10
10662;DHT22;5379;51.034;7.006;2023-05-19T09:21:28;19.60;91.60
10662;DHT22;5379;51.034;7.006;2023-05-19T09:23:57;20.60;91.80
10662;DHT22;5379;51.034;7.006;2023-05-19T09:26:24;21.00;93.90
10662;DHT22;5379;51.034;7.006;2023-05-19T09:29:01;21.60;94.50
10662;DHT22;5379;51.034;7.006;2023-05-19T09:31:35;21.60;90.70
10662;DHT22;5379;51.034;7.006;2023-05-19T09:34:02;21.20;92.30
10662;DHT22;5379;51.034;7.006;2023-05-19T09:36:31;20.90;89.50
10662;DHT22;5379;51.034;7.006;2023-05-19T09:38:58;19.90;90.20
10662;DHT22;5379;51.034;7.006;2023-05-19T09:41:25;19.70;90.50
10662;DHT22;5379;51.034;7.006;2023-05-19T09:43:53;20.90;94.10
10662;DHT22;5379;51.034;7.006;2023-05-19T09:46:24;21.60;94.20
10662;DHT22;5379;51.034;7.006;2023-05-19T09:48:56;21.80;92.20
10662;DHT22;5379;51.034;7.006;2023-05-19T09:51:23;21.50;91.60
10662;DHT22;5379;51.034;7.006;2023-05-19T09:53:51;21.90;93.80
10662;DHT22;5379;51.034;7.006;2023-05-19T09:56:18;21.80;94.20
10662;DHT22;5379;51.034;7.006;2023-05-19T09:58:48;21.90;94.40
10662;DHT22;5379;51.034;7.006;2023-05-19T10:01:15;21.90;94.30
10662;DHT22;5379;51.034;7.006;2023-05-19T10:03:43;21.70;93.10
10662;DHT22;5379;51.034;7.006;2023-05-19T10:06:11;21.10;89.20
10662;DHT22;5379;51.034;7.006;2023-05-19T10:08:40;20.70;91.90
10662;DHT22;5379;51.034;7.006;2023-05-19T10:11:10;21.70;94.60
10662;DHT22;5379;51.034;7.006;2023-05-19T10:13:38;21.60;93.60
10662;DHT22;5379;51.034;7.006;2023-05-19T10:16:06;21.60;90.30
10662;DHT22;5379;51.034;7.006;2023-05-19T10:18:34;20.70;86.90
10662;DHT22;5379;51.034;7.006;2023-05-19T10:21:04;21.00;93.30
10662;DHT22;5379;51.034;7.006;2023-05-19T10:23:45;21.30;90.20
10662;DHT22;5379;51.034;7.006;2023-05-19T10:26:14;21.50;93.60
10662;DHT22;5379;51.034;7.006;2023-05-19T10:28:42;22.00;94.10
10662;DHT22;5379;51.034;7.006;2023-05-19T10:31:13;21.90;91.60
10662;DHT22;5379;51.034;7.006;2023-05-19T10:33:59;21.50;89.70
10662;DHT22;5379;51.034;7.006;2023-05-19T10:36:41;22.00;93.50
10662;DHT22;5379;51.034;7.006;2023-05-19T10:39:13;21.40;91.80
10662;DHT22;5379;51.034;7.006;2023-05-19T10:41:49;21.30;89.40
10662;DHT22;5379;51.034;7.006;2023-05-19T10:44:27;21.60;94.00
10662;DHT22;5379;51.034;7.006;2023-05-19T10:46:56;21.90;93.70
10662;DHT22;5379;51.034;7.006;2023-05-19T10:49:23;21.90;95.20
10662;DHT22;5379;51.034;7.006;2023-05-19T10:51:53;22.00;95.60
10662;DHT22;5379;51.034;7.006;2023-05-19T10:54:39;22.00;95.90
10662;DHT22;5379;51.034;7.006;2023-05-19T10:57:13;21.80;94.60
10662;DHT22;5379;51.034;7.006;2023-05-19T10:59:42;18.50;92.40
10662;DHT22;5379;51.034;7.006;2023-05-19T11:02:10;22.00;94.40
10662;DHT22;5379;51.034;7.006;2023-05-19T11:05:06;22.10;95.80
10662;DHT22;5379;51.034;7.006;2023-05-19T11:07:33;21.90;95.50
10662;DHT22;5379;51.034;7.006;2023-05-19T11:10:04;21.70;95.60
10662;DHT22;5379;51.034;7.006;2023-05-19T11:12:42;20.70;87.90
10662;DHT22;5379;51.034;7.006;2023-05-19T11:15:25;21.00;88.30
10662;DHT22;5379;51.034;7.006;2023-05-19T11:17:53;21.60;92.50
10662;DHT22;5379;51.034;7.006;2023-05-19T11:20:38;22.10;94.40
10662;DHT22;5379;51.034;7.006;2023-05-19T11:23:06;22.10;95.30
10662;DHT22;5379;51.034;7.006;2023-05-19T11:25:44;22.00;92.90
10662;DHT22;5379;51.034;7.006;2023-05-19T11:28:15;21.60;90.90
10662;DHT22;5379;51.034;7.006;2023-05-19T11:30:44;21.80;89.60
10662;DHT22;5379;51.034;7.006;2023-05-19T11:33:15;21.60;90.00
10662;DHT22;5379;51.034;7.006;2023-05-19T11:35:45;21.30;89.60
10662;DHT22;5379;51.034;7.006;2023-05-19T11:38:13;21.20;90.40
10662;DHT22;5379;51.034;7.006;2023-05-19T11:40:41;22.10;93.80
10662;DHT22;5379;51.034;7.006;2023-05-19T11:43:09;21.90;91.90
10662;DHT22;5379;51.034;7.006;2023-05-19T11:45:37;22.30;94.70
10662;DHT22;5379;51.034;7.006;2023-05-19T11:48:04;22.30;95.50
10662;DHT22;5379;51.034;7.006;2023-05-19T11:50:31;21.90;91.10
10662;DHT22;5379;51.034;7.006;2023-05-19T11:53:00;22.00;91.80
10662;DHT22;5379;51.034;7.006;2023-05-19T11:55:27;21.50;90.70
10662;DHT22;5379;51.034;7.006;2023-05-19T11:57:57;21.80;93.90
10662;DHT22;5379;51.034;7.006;2023-05-19T12:00:25;21.80;94.30
10662;DHT22;5379;51.034;7.006;2023-05-19T12:03:01;22.20;93.30
10662;DHT22;5379;51.034;7.006;2023-05-19T12:05:29;22.20;91.00
10662;DHT22;5379;51.034;7.006;2023-05-19T12:07:56;22.30;94.80
10662;DHT22;5379;51.034;7.006;2023-05-19T12:10:25;22.30;95.70
10662;DHT22;5379;51.034;7.006;2023-05-19T12:12:53;22.30;95.20
10662;DHT22;5379;51.034;7.006;2023-05-19T12:15:20;22.40;95.60
10662;DHT22;5379;51.034;7.006;2023-05-19T12:17:48;21.90;91.60
10662;DHT22;5379;51.034;7.006;2023-05-19T12:20:18;21.70;89.70
10662;DHT22;5379;51.034;7.006;2023-05-19T12:22:45;22.20;92.60
10662;DHT22;5379;51.034;7.006;2023-05-19T12:25:14;22.00;90.10
10662;DHT22;5379;51.034;7.006;2023-05-19T12:27:42;21.80;90.10
10662;DHT22;5379;51.034;7.006;2023-05-19T12:30:10;21.60;92.80
10662;DHT22;5379;51.034;7.006;2023-05-19T12:32:38;21.40;88.30
10662;DHT22;5379;51.034;7.006;2023-05-19T12:35:06;21.80;90.60
10662;DHT22;5379;51.034;7.006;2023-05-19T12:37:35;22.40;93.30
10662;DHT22;5379;51.034;7.006;2023-05-19T12:40:04;22.00;91.00
10662;DHT22;5379;51.034;7.006;2023-05-19T12:42:31;21.40;88.50
10662;DHT22;5379;51.034;7.006;2023-05-19T12:45:02;22.30;92.40
10662;DHT22;5379;51.034;7.006;2023-05-19T12:47:32;22.20;92.40
10662;DHT22;5379;51.034;7.006;2023-05-19T12:50:08;22.40;89.40
10662;DHT22;5379;51.034;7.006;2023-05-19T12:52:44;21.60;86.30
10662;DHT22;5379;51.034;7.006;2023-05-19T12:55:13;21.80;87.40
10662;DHT22;5379;51.034;7.006;2023-05-19T12:57:43;22.60;89.50
10662;DHT22;5379;51.034;7.006;2023-05-19T13:00:15;22.60;91.20
10662;DHT22;5379;51.034;7.006;2023-05-19T13:02:58;22.70;91.90
10662;DHT22;5379;51.034;7.006;2023-05-19T13:05:26;22.30;91.00
10662;DHT22;5379;51.034;7.006;2023-05-19T13:07:56;22.20;92.80
10662;DHT22;5379;51.034;7.006;2023-05-19T13:10:27;21.80;90.00
10662;DHT22;5379;51.034;7.006;2023-05-19T13:12:55;21.90;85.50
10662;DHT22;5379;51.034;7.006;2023-05-19T13:15:23;22.60;91.40
10662;DHT22;5379;51.034;7.006;2023-05-19T13:17:51;22.70;87.50
10662;DHT22;5379;51.034;7.006;2023-05-19T13:20:19;22.60;87.20
10662;DHT22;5379;51.034;7.006;2023-05-19T13:22:46;22.30;87.70
10662;DHT22;5379;51.034;7.006;2023-05-19T13:25:15;21.80;85.80
10662;DHT22;5379;51.034;7.006;2023-05-19T13:27:42;21.90;86.50
10662;DHT22;5379;51.034;7.006;2023-05-19T13:30:11;22.60;89.60
10662;DHT22;5379;51.034;7.006;2023-05-19T13:32:38;21.90;89.40
10662;DHT22;5379;51.034;7.006;2023-05-19T13:35:06;22.40;91.60
10662;DHT22;5379;51.034;7.006;2023-05-19T13:37:33;22.10;89.20
10662;DHT22;5379;51.034;7.006;2023-05-19T13:40:00;22.70;92.40
10662;DHT22;5379;51.034;7.006;2023-05-19T13:42:28;22.90;92.90
10662;DHT22;5379;51.034;7.006;2023-05-19T13:44:57;22.70;93.80
10662;DHT22;5379;51.034;7.006;2023-05-19T13:47:24;23.00;93.00
10662;DHT22;5379;51.034;7.006;2023-05-19T13:49:52;23.00;93.00
10662;DHT22;5379;51.034;7.006;2023-05-19T13:52:20;22.50;91.40
10662;DHT22;5379;51.034;7.006;2023-05-19T13:54:49;21.90;90.50
10662;DHT22;5379;51.034;7.006;2023-05-19T13:57:19;23.30;91.30
10662;DHT22;5379;51.034;7.006;2023-05-19T13:59:48;21.90;90.40
10662;DHT22;5379;51.034;7.006;2023-05-19T14:02:15;22.10;90.60
10662;DHT22;5379;51.034;7.006;2023-05-19T14:04:42;22.50;91.40
10662;DHT22;5379;51.034;7.006;2023-05-19T14:07:09;22.40;89.30
10662;DHT22;5379;51.034;7.006;2023-05-19T14:09:36;22.80;91.40
10662;DHT22;5379;51.034;7.006;2023-05-19T14:12:03;22.60;90.10
10662;DHT22;5379;51.034;7.006;2023-05-19T14:14:31;22.40;88.70
10662;DHT22;5379;51.034;7.006;2023-05-19T14:17:00;22.30;89.80
10662;DHT22;5379;51.034;7.006;2023-05-19T14:19:26;22.90;92.00
10662;DHT22;5379;51.034;7.006;2023-05-19T14:21:54;22.30;89.00
10662;DHT22;5379;51.034;7.006;2023-05-19T14:24:22;22.00;90.00
10662;DHT22;5379;51.034;7.006;2023-05-19T14:26:48;22.60;90.20
10662;DHT22;5379;51.034;7.006;2023-05-19T14:29:17;23.20;90.90
10662;DHT22;5379;51.034;7.006;2023-05-19T14:31:44;23.30;91.60
10662;DHT22;5379;51.034;7.006;2023-05-19T14:34:12;23.20;90.00
10662;DHT22;5379;51.034;7.006;2023-05-19T14:36:42;22.40;88.50
10662;DHT22;5379;51.034;7.006;2023-05-19T14:39:09;22.80;88.60
10662;DHT22;5379;51.034;7.006;2023-05-19T14:41:36;22.80;90.80
10662;DHT22;5379;51.034;7.006;2023-05-19T14:44:04;22.70;90.80
10662;DHT22;5379;51.034;7.006;2023-05-19T14:46:31;22.10;88.00
10662;DHT22;5379;51.034;7.006;2023-05-19T14:48:58;22.20;90.50
10662;DHT22;5379;51.034;7.006;2023-05-19T14:51:26;22.40;88.20
10662;DHT22;5379;51.034;7.006;2023-05-19T14:53:53;22.70;87.00
10662;DHT22;5379;51.034;7.006;2023-05-19T14:56:20;22.90;87.60
10662;DHT22;5379;51.034;7.006;2023-05-19T14:58:47;22.70;87.80
10662;DHT22;5379;51.034;7.006;2023-05-19T15:01:14;23.20;91.50
10662;DHT22;5379;51.034;7.006;2023-05-19T15:03:41;22.70;86.40
10662;DHT22;5379;51.034;7.006;2023-05-19T15:06:08;23.00;86.80
10662;DHT22;5379;51.034;7.006;2023-05-19T15:08:37;23.40;88.30
10662;DHT22;5379;51.034;7.006;2023-05-19T15:11:05;23.20;89.90
10662;DHT22;5379;51.034;7.006;2023-05-19T15:13:32;23.00;90.10
10662;DHT22;5379;51.034;7.006;2023-05-19T15:15:59;22.60;88.70
10662;DHT22;5379;51.034;7.006;2023-05-19T15:18:26;22.50;87.20
10662;DHT22;5379;51.034;7.006;2023-05-19T15:20:53;22.30;88.80
10662;DHT22;5379;51.034;7.006;2023-05-19T15:23:20;22.30;87.70
10662;DHT22;5379;51.034;7.006;2023-05-19T15:25:48;22.40;87.30
10662;DHT22;5379;51.034;7.006;2023-05-19T15:28:15;22.50;86.40
10662;DHT22;5379;51.034;7.006;2023-05-19T15:30:42;23.10;90.00
10662;DHT22;5379;51.034;7.006;2023-05-19T15:33:10;22.80;90.30
10662;DHT22;5379;51.034;7.006;2023-05-19T15:35:37;23.20;90.10
10662;DHT22;5379;51.034;7.006;2023-05-19T15:38:04;22.70;88.40
10662;DHT22;5379;51.034;7.006;2023-05-19T15:40:31;22.50;86.40
10662;DHT22;5379;51.034;7.006;2023-05-19T15:43:00;22.40;86.10
10662;DHT22;5379;51.034;7.006;2023-05-19T15:45:27;22.50;87.20
10662;DHT22;5379;51.034;7.006;2023-05-19T15:47:54;22.90;87.20
10662;DHT22;5379;51.034;7.006;2023-05-19T15:50:21;22.80;86.40
10662;DHT22;5379;51.034;7.006;2023-05-19T15:52:48;22.70;86.70
10662;DHT22;5379;51.034;7.006;2023-05-19T15:55:15;23.10;90.20
10662;DHT22;5379;51.034;7.006;2023-05-19T15:57:41;22.80;86.20
10662;DHT22;5379;51.034;7.006;2023-05-19T16:00:11;22.50;86.10
10662;DHT22;5379;51.034;7.006;2023-05-19T16:02:39;22.70;89.10
10662;DHT22;5379;51.034;7.006;2023-05-19T16:05:06;22.40;87.00
10662;DHT22;5379;51.034;7.006;2023-05-19T16:07:33;22.50;89.20
10662;DHT22;5379;51.034;7.006;2023-05-19T16:10:00;22.60;88.20
10662;DHT22;5379;51.034;7.006;2023-05-19T16:12:27;22.70;89.40
10662;DHT22;5379;51.034;7.006;2023-05-19T16:14:54;22.70;87.00
10662;DHT22;5379;51.034;7.006;2023-05-19T16:17:23;23.00;88.70
10662;DHT22;5379;51.034;7.006;2023-05-19T16:19:50;23.20;89.30
10662;DHT22;5379;51.034;7.006;2023-05-19T16:22:17;22.90;87.30
10662;DHT22;5379;51.034;7.006;2023-05-19T16:24:44;22.80;87.50
10662;DHT22;5379;51.034;7.006;2023-05-19T16:27:11;22.30;85.30
10662;DHT22;5379;51.034;7.006;2023-05-19T16:29:38;22.70;87.80
10662;DHT22;5379;51.034;7.006;2023-05-19T16:32:05;22.80;86.90
10662;DHT22;5379;51.034;7.006;2023-05-19T16:34:34;23.10;85.90
10662;DHT22;5379;51.034;7.006;2023-05-19T16:37:01;22.70;86.30
10662;DHT22;5379;51.034;7.006;2023-05-19T16:39:27;22.30;86.60
10662;DHT22;5379;51.034;7.006;2023-05-19T16:41:54;22.40;86.30
10662;DHT22;5379;51.034;7.006;2023-05-19T16:44:21;22.20;85.80
10662;DHT22;5379;51.034;7.006;2023-05-19T16:46:49;22.10;86.50
10662;DHT22;5379;51.034;7.006;2023-05-19T16:49:16;22.60;90.20
10662;DHT22;5379;51.034;7.006;2023-05-19T16:51:44;22.30;87.00
10662;DHT22;5379;51.034;7.006;2023-05-19T16:54:11;22.40;86.50
10662;DHT22;5379;51.034;7.006;2023-05-19T16:56:38;22.70;86.30
10662;DHT22;5379;51.034;7.006;2023-05-19T16:59:05;22.30;86.30
10662;DHT22;5379;51.034;7.006;2023-05-19T17:01:32;22.30;85.90
10662;DHT22;5379;51.034;7.006;2023-05-19T17:03:58;22.40;89.10
10662;DHT22;5379;51.034;7.006;2023-05-19T17:06:25;22.40;85.60
10662;DHT22;5379;51.034;7.006;2023-05-19T17:08:54;22.30;85.90
10662;DHT22;5379;51.034;7.006;2023-05-19T17:11:21;22.10;86.20
10662;DHT22;5379;51.034;7.006;2023-05-19T17:13:48;21.90;85.70
10662;DHT22;5379;51.034;7.006;2023-05-19T17:16:14;22.30;88.50
10662;DHT22;5379;51.034;7.006;2023-05-19T17:18:42;22.10;86.20
10662;DHT22;5379;51.034;7.006;2023-05-19T17:21:09;21.90;86.00
10662;DHT22;5379;51.034;7.006;2023-05-19T17:23:36;21.90;87.40
10662;DHT22;5379;51.034;7.006;2023-05-19T17:26:04;22.20;88.10
10662;DHT22;5379;51.034;7.006;2023-05-19T17:28:31;22.00;86.90
10662;DHT22;5379;51.034;7.006;2023-05-19T17:30:58;22.00;85.90
10662;DHT22;5379;51.034;7.006;2023-05-19T17:33:25;21.90;86.80
10662;DHT22;5379;51.034;7.006;2023-05-19T17:35:52;22.10;86.80
10662;DHT22;5379;51.034;7.006;2023-05-19T17:38:19;22.30;87.10
10662;DHT22;5379;51.034;7.006;2023-05-19T17:40:46;22.60;86.80
10662;DHT22;5379;51.034;7.006;2023-05-19T17:43:15;22.60;85.70
10662;DHT22;5379;51.034;7.006;2023-05-19T17:45:41;22.20;86.70
10662;DHT22;5379;51.034;7.006;2023-05-19T17:48:08;22.20;86.60
10662;DHT22;5379;51.034;7.006;2023-05-19T17:50:36;22.40;86.70
10662;DHT22;5379;51.034;7.006;2023-05-19T17:53:03;22.30;87.40
10662;DHT22;5379;51.034;7.006;2023-05-19T17:55:31;22.70;90.00
10662;DHT22;5379;51.034;7.006;2023-05-19T17:57:58;22.60;87.10
10662;DHT22;5379;51.034;7.006;2023-05-19T18:00:27;21.90;86.60
10662;DHT22;5379;51.034;7.006;2023-05-19T18:02:55;21.70;87.20
10662;DHT22;5379;51.034;7.006;2023-05-19T18:05:23;21.70;87.50
10662;DHT22;5379;51.034;7.006;2023-05-19T18:07:50;21.80;88.50
10662;DHT22;5379;51.034;7.006;2023-05-19T18:10:17;22.00;87.70
10662;DHT22;5379;51.034;7.006;2023-05-19T18:12:44;21.80;87.00
10662;DHT22;5379;51.034;7.006;2023-05-19T18:15:11;21.90;89.50
10662;DHT22;5379;51.034;7.006;2023-05-19T18:17:39;21.70;88.70
10662;DHT22;5379;51.034;7.006;2023-05-19T18:20:07;22.00;91.10
10662;DHT22;5379;51.034;7.006;2023-05-19T18:22:34;22.30;88.10
10662;DHT22;5379;51.034;7.006;2023-05-19T18:25:01;22.40;88.10
10662;DHT22;5379;51.034;7.006;2023-05-19T18:27:28;22.10;87.90
10662;DHT22;5379;51.034;7.006;2023-05-19T18:29:56;21.70;87.30
10662;DHT22;5379;51.034;7.006;2023-05-19T18:32:22;21.80;88.40
10662;DHT22;5379;51.034;7.006;2023-05-19T18:34:51;21.70;87.90
10662;DHT22;5379;51.034;7.006;2023-05-19T18:37:18;22.00;88.50
10662;DHT22;5379;51.034;7.006;2023-05-19T18:39:45;21.80;87.20
10662;DHT22;5379;51.034;7.006;2023-05-19T18:42:12;21.80;88.00
10662;DHT22;5379;51.034;7.006;2023-05-19T18:44:39;21.40;88.80
10662;DHT22;5379;51.034;7.006;2023-05-19T18:47:06;21.40;88.50
10662;DHT22;5379;51.034;7.006;2023-05-19T18:49:33;21.60;89.20
10662;DHT22;5379;51.034;7.006;2023-05-19T18:52:02;21.30;87.30
10662;DHT22;5379;51.034;7.006;2023-05-19T18:54:29;21.30;89.60
10662;DHT22;5379;51.034;7.006;2023-05-19T18:56:57;21.40;88.70
10662;DHT22;5379;51.034;7.006;2023-05-19T18:59:24;21.40;89.10
10662;DHT22;5379;51.034;7.006;2023-05-19T19:01:52;21.20;89.90
10662;DHT22;5379;51.034;7.006;2023-05-19T19:04:19;21.20;88.70
10662;DHT22;5379;51.034;7.006;2023-05-19T19:06:46;21.20;89.50
10662;DHT22;5379;51.034;7.006;2023-05-19T19:09:15;21.30;90.20
10662;DHT22;5379;51.034;7.006;2023-05-19T19:11:42;21.00;89.90
10662;DHT22;5379;51.034;7.006;2023-05-19T19:14:09;20.90;89.80
10662;DHT22;5379;51.034;7.006;2023-05-19T19:16:36;20.80;90.10
10662;DHT22;5379;51.034;7.006;2023-05-19T19:19:03;20.70;90.00
10662;DHT22;5379;51.034;7.006;2023-05-19T19:21:30;20.80;90.50
10662;DHT22;5379;51.034;7.006;2023-05-19T19:23:57;20.80;90.10
10662;DHT22;5379;51.034;7.006;2023-05-19T19:26:25;20.90;90.20
10662;DHT22;5379;51.034;7.006;2023-05-19T19:28:53;20.90;90.30
10662;DHT22;5379;51.034;7.006;2023-05-19T19:31:20;20.80;90.40
10662;DHT22;5379;51.034;7.006;2023-05-19T19:33:47;21.10;90.40
10662;DHT22;5379;51.034;7.006;2023-05-19T19:36:14;21.30;90.60
10662;DHT22;5379;51.034;7.006;2023-05-19T19:38:41;21.10;90.40
10662;DHT22;5379;51.034;7.006;2023-05-19T19:41:08;21.30;90.80
10662;DHT22;5379;51.034;7.006;2023-05-19T19:43:37;21.20;91.40
10662;DHT22;5379;51.034;7.006;2023-05-19T19:46:04;21.20;90.90
10662;DHT22;5379;51.034;7.006;2023-05-19T19:48:32;21.10;90.50
10662;DHT22;5379;51.034;7.006;2023-05-19T19:50:59;21.00;90.40
10662;DHT22;5379;51.034;7.006;2023-05-19T19:53:26;21.10;91.40
10662;DHT22;5379;51.034;7.006;2023-05-19T19:55:57;21.50;90.90
10662;DHT22;5379;51.034;7.006;2023-05-19T19:58:25;21.60;90.90
10662;DHT22;5379;51.034;7.006;2023-05-19T20:00:56;21.60;91.00
10662;DHT22;5379;51.034;7.006;2023-05-19T20:03:24;21.30;90.80
10662;DHT22;5379;51.034;7.006;2023-05-19T20:05:52;21.30;90.80
10662;DHT22;5379;51.034;7.006;2023-05-19T20:08:19;21.20;90.90
10662;DHT22;5379;51.034;7.006;2023-05-19T20:10:46;21.20;90.90
10662;DHT22;5379;51.034;7.006;2023-05-19T20:13:14;21.60;91.90
10662;DHT22;5379;51.034;7.006;2023-05-19T20:15:41;21.30;90.30
10662;DHT22;5379;51.034;7.006;2023-05-19T20:18:09;21.20;91.20
10662;DHT22;5379;51.034;7.006;2023-05-19T20:20:37;21.70;90.70
10662;DHT22;5379;51.034;7.006;2023-05-19T20:23:04;21.70;91.40